createdAt,value
2023-03-26T00:02:13.356Z,9.10
2023-03-26T00:04:42.736Z,9.00
2023-03-26T00:07:12.704Z,8.90
2023-03-26T00:09:41.821Z,8.80
2023-03-26T00:12:10.895Z,8.70
2023-03-26T00:14:40.928Z,8.70
2023-03-26T00:17:10.055Z,8.70
2023-03-26T00:19:40.351Z,8.60
2023-03-26T00:22:13.615Z,8.60
2023-03-26T00:24:45.987Z,8.60
2023-03-26T00:27:15.181Z,8.50
2023-03-26T00:29:44.874Z,8.40
2023-03-26T00:32:14.581Z,8.30
2023-03-26T00:34:46.264Z,8.30
2023-03-26T00:37:15.511Z,8.30
2023-03-26T00:39:44.726Z,8.30
2023-03-26T00:42:15.007Z,8.30
2023-03-26T00:44:44.288Z,8.30
2023-03-26T00:47:13.533Z,8.40
2023-03-26T00:49:43.159Z,8.60
2023-03-26T00:52:12.507Z,8.80
2023-03-26T00:54:41.615Z,8.90
2023-03-26T00:57:12.319Z,9.10
2023-03-26T00:59:42.355Z,9.20
2023-03-26T01:02:16.950Z,9.30
2023-03-26T01:04:57.336Z,9.30
2023-03-26T01:07:29.192Z,9.40
2023-03-26T01:10:00.236Z,9.50
2023-03-26T01:12:34.382Z,9.60
2023-03-26T01:15:04.571Z,9.60
2023-03-26T01:17:37.998Z,9.70
2023-03-26T01:20:15.654Z,9.70
2023-03-26T01:22:52.324Z,9.70
2023-03-26T01:25:25.878Z,9.80
2023-03-26T01:27:56.170Z,9.80
2023-03-26T01:30:25.386Z,9.80
2023-03-26T01:33:14.218Z,9.90
2023-03-26T01:35:52.967Z,9.90
2023-03-26T01:38:52.947Z,9.80
2023-03-26T01:41:44.773Z,9.80
2023-03-26T01:44:18.135Z,9.80
2023-03-26T01:46:48.624Z,9.80
2023-03-26T01:49:18.668Z,9.80
2023-03-26T01:51:48.542Z,9.80
2023-03-26T01:54:21.521Z,9.70
2023-03-26T01:56:59.004Z,9.60
2023-03-26T01:59:40.629Z,9.50
2023-03-26T02:02:28.994Z,9.50
2023-03-26T02:05:06.092Z,9.50
2023-03-26T02:07:43.488Z,9.50
2023-03-26T02:10:22.945Z,9.40
2023-03-26T02:12:52.623Z,9.20
2023-03-26T02:15:22.315Z,9.10
2023-03-26T02:17:53.086Z,9.00
2023-03-26T02:20:22.450Z,8.80
2023-03-26T02:22:51.506Z,8.70
2023-03-26T02:25:22.527Z,8.60
2023-03-26T02:27:53.657Z,8.50
2023-03-26T02:30:25.867Z,8.30
2023-03-26T02:32:59.447Z,8.20
2023-03-26T02:35:34.495Z,8.20
2023-03-26T02:38:04.808Z,8.10
2023-03-26T02:40:33.952Z,8.00
2023-03-26T02:43:03.094Z,7.90
2023-03-26T02:45:34.302Z,7.80
2023-03-26T02:48:23.946Z,7.70
2023-03-26T02:50:55.686Z,7.60
2023-03-26T02:54:01.208Z,7.50
2023-03-26T02:56:30.690Z,7.40
2023-03-26T02:59:18.338Z,7.30
2023-03-26T03:01:51.458Z,7.10
2023-03-26T03:04:21.984Z,7.00
2023-03-26T03:06:57.625Z,7.00
2023-03-26T03:09:27.718Z,6.90
2023-03-26T03:12:17.159Z,6.80
2023-03-26T03:14:46.418Z,6.70
2023-03-26T03:17:15.498Z,6.60
2023-03-26T03:19:45.338Z,6.60
2023-03-26T03:22:14.584Z,6.50
2023-03-26T03:24:44.352Z,6.40
2023-03-26T03:27:13.858Z,6.40
2023-03-26T03:29:47.722Z,6.40
2023-03-26T03:32:37.187Z,6.40
2023-03-26T03:35:07.593Z,6.20
2023-03-26T03:37:36.868Z,6.20
2023-03-26T03:40:07.796Z,6.10
2023-03-26T03:42:38.142Z,6.10
2023-03-26T03:45:09.179Z,6.10
2023-03-26T03:48:00.077Z,5.90
2023-03-26T03:50:37.180Z,5.90
2023-03-26T03:53:37.237Z,5.80
2023-03-26T03:56:10.289Z,5.80
2023-03-26T03:58:59.718Z,5.80
2023-03-26T04:01:36.021Z,5.80
2023-03-26T04:04:15.532Z,5.80
2023-03-26T04:06:53.190Z,5.70
2023-03-26T04:09:22.971Z,5.70
2023-03-26T04:11:52.611Z,5.60
2023-03-26T04:14:54.488Z,5.60
2023-03-26T04:17:24.233Z,5.70
2023-03-26T04:19:57.113Z,5.80
2023-03-26T04:22:34.788Z,5.80
2023-03-26T04:25:07.682Z,5.90
2023-03-26T04:27:47.880Z,5.80
2023-03-26T04:30:42.443Z,5.80
2023-03-26T04:33:39.319Z,5.90
2023-03-26T04:36:10.235Z,5.80
2023-03-26T04:38:49.044Z,5.80
2023-03-26T04:41:20.463Z,5.90
2023-03-26T04:43:56.891Z,5.80
2023-03-26T04:46:53.042Z,5.80
2023-03-26T04:49:29.105Z,5.80
2023-03-26T04:51:58.428Z,5.70
2023-03-26T04:54:46.693Z,5.70
2023-03-26T04:57:27.634Z,5.70
2023-03-26T05:00:19.416Z,5.80
2023-03-26T05:02:59.615Z,5.80
2023-03-26T05:05:29.404Z,5.90
2023-03-26T05:08:01.131Z,5.90
2023-03-26T05:10:30.387Z,5.90
2023-03-26T05:13:14.248Z,6.00
2023-03-26T05:15:49.562Z,6.00
2023-03-26T05:18:39.425Z,6.10
2023-03-26T05:21:09.212Z,6.20
2023-03-26T05:23:40.352Z,6.20
2023-03-26T05:26:23.398Z,6.30
2023-03-26T05:28:52.845Z,6.40
2023-03-26T05:31:31.343Z,6.50
2023-03-26T05:34:01.802Z,6.60
2023-03-26T05:36:30.980Z,6.80
2023-03-26T05:39:29.907Z,6.90
2023-03-26T05:42:31.760Z,7.20
2023-03-26T05:45:30.317Z,7.40
2023-03-26T05:48:03.830Z,7.60
2023-03-26T05:50:33.049Z,7.90
2023-03-26T05:53:03.001Z,8.20
2023-03-26T05:56:02.110Z,8.60
2023-03-26T05:58:52.190Z,8.90
2023-03-26T06:01:45.011Z,9.20
2023-03-26T06:04:28.678Z,9.30
2023-03-26T06:07:21.106Z,9.30
2023-03-26T06:11:33.221Z,9.50
2023-03-26T06:14:04.753Z,10.10
2023-03-26T06:16:35.477Z,10.20
2023-03-26T06:19:24.123Z,10.00
2023-03-26T06:22:22.406Z,9.90
2023-03-26T06:25:19.303Z,9.80
2023-03-26T06:28:18.099Z,9.90
2023-03-26T06:31:22.787Z,10.20
2023-03-26T06:33:57.094Z,10.50
2023-03-26T06:36:26.382Z,10.80
2023-03-26T06:38:55.629Z,11.00
2023-03-26T06:41:24.863Z,11.20
2023-03-26T06:44:12.504Z,11.30
2023-03-26T06:47:00.237Z,11.30
2023-03-26T06:49:52.277Z,11.30
2023-03-26T06:52:56.944Z,11.30
2023-03-26T06:55:55.373Z,11.40
2023-03-26T06:58:45.866Z,11.40
2023-03-26T07:01:33.574Z,11.30
2023-03-26T07:04:21.352Z,11.30
2023-03-26T07:07:09.291Z,11.40
2023-03-26T07:09:56.741Z,11.60
2023-03-26T07:12:47.669Z,11.70
2023-03-26T07:15:35.872Z,12.00
2023-03-26T07:18:15.201Z,12.10
2023-03-26T07:20:46.486Z,12.20
2023-03-26T07:23:20.156Z,12.40
2023-03-26T07:26:26.332Z,12.30
2023-03-26T07:29:34.983Z,12.10
2023-03-26T07:32:18.468Z,11.80
2023-03-26T07:35:26.383Z,11.90
2023-03-26T07:38:25.792Z,12.00
2023-03-26T07:41:40.074Z,12.30
2023-03-26T07:44:46.233Z,12.30
2023-03-26T07:47:53.636Z,12.40
2023-03-26T07:50:29.487Z,12.40
2023-03-26T07:53:22.148Z,12.70
2023-03-26T07:56:16.326Z,12.90
2023-03-26T07:59:21.461Z,13.10
2023-03-26T08:02:19.607Z,13.30
2023-03-26T08:05:18.963Z,13.40
2023-03-26T08:08:23.085Z,13.60
2023-03-26T08:11:40.619Z,13.70
2023-03-26T08:14:31.054Z,13.60
2023-03-26T08:17:06.927Z,13.70
2023-03-26T08:19:51.242Z,13.80
2023-03-26T08:22:28.871Z,13.60
2023-03-26T08:25:25.650Z,13.80
2023-03-26T08:28:08.609Z,13.90
2023-03-26T08:30:37.868Z,13.90
2023-03-26T08:33:20.598Z,14.20
2023-03-26T08:35:50.120Z,14.40
2023-03-26T08:38:20.990Z,14.20
2023-03-26T08:41:08.286Z,13.80
2023-03-26T08:43:46.187Z,13.70
2023-03-26T08:46:21.137Z,14.40
2023-03-26T08:49:05.754Z,14.90
2023-03-26T08:51:49.931Z,15.60
2023-03-26T08:54:48.430Z,16.00
2023-03-26T08:57:24.868Z,16.30
2023-03-26T09:00:12.492Z,16.10
2023-03-26T09:03:00.560Z,16.30
2023-03-26T09:05:43.049Z,15.80
2023-03-26T09:08:35.672Z,15.50
2023-03-26T09:11:42.095Z,15.70
2023-03-26T09:14:55.789Z,15.80
2023-03-26T09:17:43.436Z,15.60
2023-03-26T09:20:37.709Z,15.60
2023-03-26T09:23:45.452Z,15.50
2023-03-26T09:26:38.756Z,15.20
2023-03-26T09:29:23.050Z,14.90
2023-03-26T09:32:26.137Z,14.80
2023-03-26T09:35:13.803Z,14.50
2023-03-26T09:37:59.498Z,14.60
2023-03-26T09:40:52.442Z,14.80
2023-03-26T09:43:28.286Z,15.10
2023-03-26T09:46:19.135Z,15.00
2023-03-26T09:49:24.971Z,15.00
2023-03-26T09:52:35.621Z,15.10
2023-03-26T09:55:08.436Z,14.90
2023-03-26T09:58:19.187Z,15.00
2023-03-26T10:01:06.912Z,15.00
2023-03-26T10:04:14.819Z,15.50
2023-03-26T10:07:02.335Z,16.00
2023-03-26T10:09:37.542Z,15.70
2023-03-26T10:12:15.796Z,15.20
2023-03-26T10:14:59.260Z,14.80
2023-03-26T10:17:43.165Z,14.50
2023-03-26T10:20:31.381Z,14.30
2023-03-26T10:23:03.159Z,14.40
2023-03-26T10:26:01.459Z,14.50
2023-03-26T10:28:36.709Z,14.50
2023-03-26T10:31:35.362Z,14.60
2023-03-26T10:34:28.486Z,14.70
2023-03-26T10:37:49.917Z,15.20
2023-03-26T10:40:57.449Z,15.20
2023-03-26T10:44:07.258Z,14.90
2023-03-26T10:47:18.274Z,15.20
2023-03-26T10:50:06.204Z,16.10
2023-03-26T10:52:41.655Z,16.20
2023-03-26T10:55:16.658Z,16.50
2023-03-26T10:57:56.167Z,16.70
2023-03-26T11:00:29.049Z,17.00
2023-03-26T11:03:19.945Z,17.00
2023-03-26T11:06:02.862Z,17.00
2023-03-26T11:08:41.230Z,17.40
2023-03-26T11:11:39.288Z,17.20
2023-03-26T11:14:35.255Z,16.90
2023-03-26T11:17:40.008Z,17.10
2023-03-26T11:20:39.811Z,16.60
2023-03-26T11:23:14.677Z,16.70
2023-03-26T11:26:22.788Z,16.60
2023-03-26T11:29:31.468Z,16.60
2023-03-26T11:32:31.953Z,16.80
2023-03-26T11:35:08.259Z,17.10
2023-03-26T11:37:52.104Z,17.60
2023-03-26T11:40:25.582Z,17.80
2023-03-26T11:43:00.823Z,18.20
2023-03-26T11:45:33.258Z,18.00
2023-03-26T11:48:10.694Z,17.90
2023-03-26T11:50:47.188Z,17.40
2023-03-26T11:53:19.288Z,17.10
2023-03-26T11:55:57.698Z,17.10
2023-03-26T11:58:55.807Z,17.30
2023-03-26T12:01:31.106Z,17.50
2023-03-26T12:04:13.602Z,18.00
2023-03-26T12:06:57.681Z,18.00
2023-03-26T12:09:27.027Z,18.30
2023-03-26T12:12:02.482Z,18.20
2023-03-26T12:14:35.394Z,18.30
2023-03-26T12:17:11.726Z,17.90
2023-03-26T12:19:45.839Z,17.80
2023-03-26T12:22:37.316Z,17.90
2023-03-26T12:25:26.622Z,18.00
2023-03-26T12:28:02.610Z,17.90
2023-03-26T12:30:34.675Z,17.60
2023-03-26T12:33:28.882Z,17.50
2023-03-26T12:35:58.420Z,17.30
2023-03-26T12:38:33.802Z,17.20
2023-03-26T12:44:44.625Z,17.20
2023-03-26T12:44:57.645Z,17.10
2023-03-26T12:47:58.983Z,17.00
2023-03-26T12:50:34.487Z,16.80
2023-03-26T12:53:24.478Z,17.20
2023-03-26T12:56:06.144Z,17.90
2023-03-26T12:58:51.140Z,18.00
2023-03-26T13:01:26.507Z,18.00
2023-03-26T13:04:13.471Z,18.00
2023-03-26T13:07:00.983Z,18.50
2023-03-26T13:09:59.878Z,18.50
2023-03-26T13:12:48.870Z,18.20
2023-03-26T13:15:31.333Z,18.60
2023-03-26T13:18:21.501Z,18.80
2023-03-26T13:21:18.777Z,18.60
2023-03-26T13:24:04.590Z,19.30
2023-03-26T13:26:43.237Z,21.40
2023-03-26T13:29:12.330Z,26.00
2023-03-26T13:31:58.398Z,28.80
2023-03-26T13:34:42.287Z,26.30
2023-03-26T13:37:12.805Z,23.80
2023-03-26T13:39:50.001Z,22.80
2023-03-26T13:42:28.878Z,23.10
2023-03-26T13:45:04.971Z,21.60
2023-03-26T13:47:39.557Z,21.00
2023-03-26T13:50:37.583Z,27.40
2023-03-26T13:53:25.373Z,32.60
2023-03-26T13:55:59.868Z,36.40
2023-03-26T13:58:50.789Z,36.40
2023-03-26T14:01:25.095Z,37.80
2023-03-26T14:04:00.247Z,38.70
2023-03-26T14:06:42.401Z,39.10
2023-03-26T14:09:17.881Z,34.50
2023-03-26T14:11:56.819Z,30.00
2023-03-26T14:14:29.026Z,26.90
2023-03-26T14:17:23.700Z,25.20
2023-03-26T14:19:52.751Z,23.90
2023-03-26T14:22:33.718Z,22.60
2023-03-26T14:25:17.043Z,21.70
2023-03-26T14:28:07.799Z,20.80
2023-03-26T14:30:56.448Z,20.00
2023-03-26T14:33:47.770Z,19.30
2023-03-26T14:36:32.036Z,18.80
2023-03-26T14:39:15.013Z,18.30
2023-03-26T14:41:51.638Z,17.90
2023-03-26T14:44:48.543Z,17.70
2023-03-26T14:47:23.793Z,17.40
2023-03-26T14:50:05.229Z,17.20
2023-03-26T14:52:50.961Z,17.20
2023-03-26T14:55:42.129Z,17.30
2023-03-26T14:58:22.174Z,17.40
2023-03-26T15:01:22.439Z,17.40
2023-03-26T15:04:19.015Z,17.30
2023-03-26T15:07:02.980Z,17.30
2023-03-26T15:09:32.305Z,17.10
2023-03-26T15:12:14.495Z,16.90
2023-03-26T15:15:21.090Z,16.80
2023-03-26T15:18:32.080Z,16.70
2023-03-26T15:21:37.992Z,16.40
2023-03-26T15:24:41.477Z,16.20
2023-03-26T15:27:16.267Z,16.10
2023-03-26T15:30:13.134Z,16.00
2023-03-26T15:33:00.765Z,16.00
2023-03-26T15:35:42.177Z,16.00
2023-03-26T15:38:48.666Z,15.90
2023-03-26T15:41:28.562Z,15.90
2023-03-26T15:44:24.672Z,15.60
2023-03-26T15:46:56.787Z,15.50
2023-03-26T15:49:44.249Z,15.40
2023-03-26T15:52:19.311Z,15.20
2023-03-26T15:55:05.476Z,15.20
2023-03-26T15:57:51.112Z,15.10
2023-03-26T16:00:29.235Z,15.00
2023-03-26T16:02:58.367Z,15.00
2023-03-26T16:05:36.842Z,14.90
2023-03-26T16:08:40.093Z,14.80
2023-03-26T16:11:12.736Z,14.70
2023-03-26T16:13:49.388Z,14.70
2023-03-26T16:16:24.975Z,14.80
2023-03-26T16:18:55.252Z,14.80
2023-03-26T16:21:32.361Z,14.80
2023-03-26T16:24:08.234Z,14.80
2023-03-26T16:26:43.242Z,14.70
2023-03-26T16:29:22.342Z,14.70
2023-03-26T16:31:57.670Z,14.70
2023-03-26T16:34:36.935Z,14.60
2023-03-26T16:37:32.301Z,14.60
2023-03-26T16:40:20.241Z,14.50
2023-03-26T16:42:59.271Z,14.40
2023-03-26T16:45:57.360Z,14.30
2023-03-26T16:48:32.414Z,14.30
2023-03-26T16:51:17.209Z,14.20
2023-03-26T16:54:00.656Z,14.10
2023-03-26T16:56:33.494Z,14.00
2023-03-26T16:59:37.368Z,13.90
2023-03-26T17:02:25.433Z,13.80
2023-03-26T17:05:09.589Z,13.60
2023-03-26T17:07:47.196Z,13.50
2023-03-26T17:10:33.229Z,13.40
2023-03-26T17:13:16.791Z,13.30
2023-03-26T17:15:50.586Z,13.20
2023-03-26T17:18:44.576Z,13.10
2023-03-26T17:21:46.359Z,13.00
2023-03-26T17:24:41.140Z,12.90
2023-03-26T17:27:57.443Z,12.80
2023-03-26T17:30:32.713Z,12.70
2023-03-26T17:33:01.961Z,12.60
2023-03-26T17:35:42.831Z,12.60
2023-03-26T17:38:17.774Z,12.50
2023-03-26T17:40:49.616Z,12.40
2023-03-26T17:43:36.953Z,12.30
2023-03-26T17:46:42.235Z,12.30
2023-03-26T17:49:24.238Z,12.30
2023-03-26T17:52:15.160Z,12.30
2023-03-26T17:54:47.271Z,12.30
2023-03-26T17:57:32.668Z,12.40
2023-03-26T18:00:06.016Z,12.40
2023-03-26T18:02:47.224Z,12.40
2023-03-26T18:05:17.495Z,12.50
2023-03-26T18:07:56.264Z,12.40
2023-03-26T18:10:49.705Z,12.40
2023-03-26T18:13:56.988Z,12.40
2023-03-26T18:16:35.441Z,12.40
2023-03-26T18:19:18.246Z,12.30
2023-03-26T18:21:50.474Z,12.30
2023-03-26T18:24:41.249Z,12.20
2023-03-26T18:27:14.849Z,12.10
2023-03-26T18:29:57.519Z,12.00
2023-03-26T18:32:34.031Z,11.90
2023-03-26T18:35:21.415Z,11.80
2023-03-26T18:37:54.358Z,11.80
2023-03-26T18:40:25.007Z,11.70
2023-03-26T18:42:57.836Z,11.70
2023-03-26T18:45:36.325Z,11.60
2023-03-26T18:48:19.155Z,11.60
2023-03-26T18:50:54.944Z,11.50
2023-03-26T18:53:29.740Z,11.50
2023-03-26T18:55:59.016Z,11.50
2023-03-26T18:58:36.899Z,11.50
2023-03-26T19:01:16.879Z,11.50
2023-03-26T19:03:49.896Z,11.40
2023-03-26T19:06:20.979Z,11.40
2023-03-26T19:08:51.054Z,11.40
2023-03-26T19:11:20.628Z,11.40
2023-03-26T19:14:08.137Z,11.40
2023-03-26T19:16:43.519Z,11.40
2023-03-26T19:19:18.958Z,11.40
2023-03-26T19:21:48.930Z,11.40
2023-03-26T19:24:20.703Z,11.30
2023-03-26T19:26:50.898Z,11.30
2023-03-26T19:29:28.222Z,11.30
2023-03-26T19:32:14.232Z,11.30
2023-03-26T19:34:45.214Z,11.30
2023-03-26T19:37:22.199Z,11.30
2023-03-26T19:40:02.200Z,11.30
2023-03-26T19:42:43.853Z,11.30
2023-03-26T19:45:23.601Z,11.20
2023-03-26T19:48:03.458Z,11.20
2023-03-26T19:50:42.211Z,11.20
2023-03-26T19:53:17.144Z,11.20
2023-03-26T19:55:55.779Z,11.20
2023-03-26T19:58:28.415Z,11.20
2023-03-26T20:00:58.315Z,11.20
2023-03-26T20:03:39.005Z,11.20
2023-03-26T20:06:17.404Z,11.20
2023-03-26T20:08:47.268Z,11.20
2023-03-26T20:11:20.647Z,11.20
2023-03-26T20:13:50.445Z,11.20
2023-03-26T20:16:31.973Z,11.20
2023-03-26T20:19:04.509Z,11.20
2023-03-26T20:21:34.879Z,11.20
2023-03-26T20:24:31.074Z,11.30
2023-03-26T20:27:00.165Z,11.30
2023-03-26T20:29:29.400Z,11.30
2023-03-26T20:31:58.486Z,11.30
2023-03-26T20:34:28.045Z,11.20
2023-03-26T20:37:01.251Z,11.20
2023-03-26T20:39:30.951Z,11.00
2023-03-26T20:42:00.093Z,10.90
2023-03-26T20:44:29.282Z,10.80
2023-03-26T20:46:59.077Z,10.70
2023-03-26T20:49:29.356Z,10.60
2023-03-26T20:51:59.691Z,10.40
2023-03-26T20:54:30.350Z,10.10
2023-03-26T20:56:59.522Z,10.00
2023-03-26T20:59:30.017Z,9.90
2023-03-26T21:01:59.428Z,9.90
2023-03-26T21:04:28.760Z,9.90
2023-03-26T21:07:07.224Z,9.90
2023-03-26T21:09:44.994Z,9.90
2023-03-26T21:12:28.160Z,9.90
2023-03-26T21:14:57.607Z,10.00
2023-03-26T21:17:27.283Z,10.00
2023-03-26T21:20:00.520Z,9.90
2023-03-26T21:22:56.412Z,9.90
2023-03-26T21:26:06.478Z,9.80
2023-03-26T21:28:42.493Z,9.80
2023-03-26T21:31:14.872Z,9.80
2023-03-26T21:33:45.020Z,9.80
2023-03-26T21:36:15.036Z,9.90
2023-03-26T21:38:45.583Z,9.80
2023-03-26T21:41:23.515Z,9.80
2023-03-26T21:43:52.633Z,9.70
2023-03-26T21:46:22.102Z,9.70
2023-03-26T21:48:51.732Z,9.70
2023-03-26T21:51:21.230Z,9.80
2023-03-26T21:53:50.695Z,9.80
2023-03-26T21:56:48.665Z,9.80
2023-03-26T21:59:32.102Z,9.80
2023-03-26T22:02:10.478Z,9.80
2023-03-26T22:05:02.575Z,9.70
2023-03-26T22:07:50.939Z,9.70
2023-03-26T22:10:20.547Z,9.70
2023-03-26T22:12:49.986Z,9.60
2023-03-26T22:15:20.035Z,9.70
2023-03-26T22:17:54.143Z,9.60
2023-03-26T22:20:28.161Z,9.60
2023-03-26T22:22:57.433Z,9.70
2023-03-26T22:25:26.607Z,9.70
2023-03-26T22:27:57.496Z,9.70
2023-03-26T22:30:27.316Z,9.60
2023-03-26T22:32:56.927Z,9.60
2023-03-26T22:35:26.731Z,9.60
2023-03-26T22:38:00.757Z,9.60
2023-03-26T22:40:30.548Z,9.60
2023-03-26T22:42:59.579Z,9.70
2023-03-26T22:45:28.700Z,9.70
2023-03-26T22:48:03.690Z,9.60
2023-03-26T22:50:33.595Z,9.60
2023-03-26T22:53:02.779Z,9.60
2023-03-26T22:55:32.410Z,9.50
2023-03-26T22:58:01.580Z,9.60
2023-03-26T23:00:32.371Z,9.60
2023-03-26T23:03:01.896Z,9.60
2023-03-26T23:05:31.012Z,9.60
2023-03-26T23:08:00.418Z,9.60
2023-03-26T23:10:30.217Z,9.60
2023-03-26T23:12:59.540Z,9.70
2023-03-26T23:15:28.734Z,9.60
2023-03-26T23:17:59.151Z,9.60
2023-03-26T23:20:30.100Z,9.60
2023-03-26T23:22:59.201Z,9.50
2023-03-26T23:25:28.543Z,9.50
2023-03-26T23:27:57.795Z,9.50
2023-03-26T23:30:26.843Z,9.50
2023-03-26T23:32:57.362Z,9.60
2023-03-26T23:35:26.612Z,9.50
2023-03-26T23:37:56.005Z,9.50
2023-03-26T23:40:25.205Z,9.50
2023-03-26T23:42:54.288Z,9.50
2023-03-26T23:45:23.462Z,9.40
2023-03-26T23:47:52.591Z,9.40
2023-03-26T23:50:23.543Z,9.40
2023-03-26T23:52:53.658Z,9.40
2023-03-26T23:55:22.796Z,9.40
2023-03-26T23:57:52.029Z,9.40
